sensor_id;sensor_type;location;lat;lon;timestamp;pressure;altitude;pressure_sealevel;temperature;humidity
72892;BME280;61032;50.782;6.818;2022-11-23T00:00:14;98752.78;;;9.17;73.83
72892;BME280;61032;50.782;6.818;2022-11-23T00:01:20;98757.84;;;9.15;73.39
72892;BME280;61032;50.782;6.818;2022-11-23T00:02:21;98759.06;;;9.17;73.42
72892;BME280;61032;50.782;6.818;2022-11-23T00:03:21;98746.13;;;9.18;73.38
72892;BME280;61032;50.782;6.818;2022-11-23T00:04:21;98753.22;;;9.19;73.42
72892;BME280;61032;50.782;6.818;2022-11-23T00:05:24;98751.34;;;9.23;73.52
72892;BME280;61032;50.782;6.818;2022-11-23T00:06:25;98756.44;;;9.24;73.53
72892;BME280;61032;50.782;6.818;2022-11-23T00:07:25;98754.94;;;9.27;73.17
72892;BME280;61032;50.782;6.818;2022-11-23T00:08:26;98757.25;;;9.25;73.49
72892;BME280;61032;50.782;6.818;2022-11-23T00:09:26;98754.94;;;9.27;73.39
72892;BME280;61032;50.782;6.818;2022-11-23T00:10:26;98752.63;;;9.29;73.51
72892;BME280;61032;50.782;6.818;2022-11-23T00:11:27;98754.56;;;9.28;73.39
72892;BME280;61032;50.782;6.818;2022-11-23T00:12:28;98751.41;;;9.26;73.39
72892;BME280;61032;50.782;6.818;2022-11-23T00:13:28;98755.66;;;9.24;73.50
72892;BME280;61032;50.782;6.818;2022-11-23T00:14:28;98754.94;;;9.27;73.64
72892;BME280;61032;50.782;6.818;2022-11-23T00:15:28;98756.53;;;9.28;73.36
72892;BME280;61032;50.782;6.818;2022-11-23T00:16:29;98754.16;;;9.26;73.60
72892;BME280;61032;50.782;6.818;2022-11-23T00:17:30;98758.53;;;9.31;73.43
72892;BME280;61032;50.782;6.818;2022-11-23T00:18:30;98749.88;;;9.29;73.36
72892;BME280;61032;50.782;6.818;2022-11-23T00:19:30;98756.03;;;9.22;74.10
72892;BME280;61032;50.782;6.818;2022-11-23T00:20:31;98756.38;;;9.21;73.98
72892;BME280;61032;50.782;6.818;2022-11-23T00:21:31;98752.91;;;9.24;73.63
72892;BME280;61032;50.782;6.818;2022-11-23T00:22:33;98754.06;;;9.23;73.99
72892;BME280;61032;50.782;6.818;2022-11-23T00:23:34;98758.84;;;9.26;73.47
72892;BME280;61032;50.782;6.818;2022-11-23T00:24:34;98757.31;;;9.28;73.82
72892;BME280;61032;50.782;6.818;2022-11-23T00:25:34;98758.53;;;9.31;73.63
72892;BME280;61032;50.782;6.818;2022-11-23T00:26:35;98753.47;;;9.33;73.30
72892;BME280;61032;50.782;6.818;2022-11-23T00:27:35;98760.13;;;9.32;73.65
72892;BME280;61032;50.782;6.818;2022-11-23T00:28:36;98759.69;;;9.30;73.06
72892;BME280;61032;50.782;6.818;2022-11-23T00:29:39;98766.34;;;9.29;73.18
72892;BME280;61032;50.782;6.818;2022-11-23T00:30:39;98761.22;;;9.27;73.17
72892;BME280;61032;50.782;6.818;2022-11-23T00:31:39;98764.03;;;9.31;73.40
72892;BME280;61032;50.782;6.818;2022-11-23T00:32:39;98766.75;;;9.31;73.52
72892;BME280;61032;50.782;6.818;2022-11-23T00:33:40;98765.47;;;9.25;73.83
72892;BME280;61032;50.782;6.818;2022-11-23T00:34:41;98764.38;;;9.29;73.54
72892;BME280;61032;50.782;6.818;2022-11-23T00:35:41;98764.03;;;9.31;73.43
72892;BME280;61032;50.782;6.818;2022-11-23T00:36:42;98770.31;;;9.32;73.38
72892;BME280;61032;50.782;6.818;2022-11-23T00:37:42;98765.28;;;9.37;73.42
72892;BME280;61032;50.782;6.818;2022-11-23T00:38:42;98766.09;;;9.38;73.10
72892;BME280;61032;50.782;6.818;2022-11-23T00:39:43;98762.63;;;9.41;73.05
72892;BME280;61032;50.782;6.818;2022-11-23T00:40:43;98761.88;;;9.44;72.62
72892;BME280;61032;50.782;6.818;2022-11-23T00:41:44;98768.59;;;9.46;73.13
72892;BME280;61032;50.782;6.818;2022-11-23T00:42:44;98759.94;;;9.44;73.25
72892;BME280;61032;50.782;6.818;2022-11-23T00:43:44;98771.28;;;9.43;73.00
72892;BME280;61032;50.782;6.818;2022-11-23T00:44:45;98770.19;;;9.47;72.67
72892;BME280;61032;50.782;6.818;2022-11-23T00:45:45;98770.25;;;9.51;72.78
72892;BME280;61032;50.782;6.818;2022-11-23T00:46:48;98774.81;;;9.43;72.76
72892;BME280;61032;50.782;6.818;2022-11-23T00:47:48;98770.03;;;9.40;73.31
72892;BME280;61032;50.782;6.818;2022-11-23T00:48:50;98771.19;;;9.39;73.44
72892;BME280;61032;50.782;6.818;2022-11-23T00:49:51;98775.09;;;9.38;73.26
72892;BME280;61032;50.782;6.818;2022-11-23T00:50:51;98773.16;;;9.39;73.51
72892;BME280;61032;50.782;6.818;2022-11-23T00:51:51;98773.22;;;9.42;73.21
72892;BME280;61032;50.782;6.818;2022-11-23T00:52:51;98775.59;;;9.44;72.85
72892;BME280;61032;50.782;6.818;2022-11-23T00:53:52;98779.13;;;9.44;72.85
72892;BME280;61032;50.782;6.818;2022-11-23T00:54:52;98775.97;;;9.42;73.03
72892;BME280;61032;50.782;6.818;2022-11-23T00:55:53;98777.91;;;9.42;73.49
72892;BME280;61032;50.782;6.818;2022-11-23T00:56:54;98780.28;;;9.43;73.05
72892;BME280;61032;50.782;6.818;2022-11-23T00:57:56;98780.28;;;9.43;73.27
72892;BME280;61032;50.782;6.818;2022-11-23T00:58:58;98781.16;;;9.47;72.88
72892;BME280;61032;50.782;6.818;2022-11-23T00:59:59;98783.81;;;9.44;73.53
72892;BME280;61032;50.782;6.818;2022-11-23T01:02:01;98778.34;;;9.44;73.37
72892;BME280;61032;50.782;6.818;2022-11-23T01:03:01;98780.00;;;9.48;73.29
72892;BME280;61032;50.782;6.818;2022-11-23T01:04:04;98783.47;;;9.45;73.07
72892;BME280;61032;50.782;6.818;2022-11-23T01:05:05;98785.84;;;9.47;73.74
72892;BME280;61032;50.782;6.818;2022-11-23T01:06:17;98780.00;;;9.48;73.07
72892;BME280;61032;50.782;6.818;2022-11-23T01:07:18;98782.38;;;9.50;72.94
72892;BME280;61032;50.782;6.818;2022-11-23T01:08:18;98787.50;;;9.51;73.32
72892;BME280;61032;50.782;6.818;2022-11-23T01:09:19;98781.66;;;9.53;72.83
72892;BME280;61032;50.782;6.818;2022-11-23T01:10:24;98782.44;;;9.53;73.20
72892;BME280;61032;50.782;6.818;2022-11-23T01:11:26;98787.16;;;9.56;72.81
72892;BME280;61032;50.782;6.818;2022-11-23T01:12:28;98793.06;;;9.55;72.61
72892;BME280;61032;50.782;6.818;2022-11-23T01:13:28;98780.53;;;9.57;72.84
72892;BME280;61032;50.782;6.818;2022-11-23T01:14:29;98788.75;;;9.57;73.16
72892;BME280;61032;50.782;6.818;2022-11-23T01:15:29;98784.84;;;9.58;72.61
72892;BME280;61032;50.782;6.818;2022-11-23T01:16:32;98799.34;;;9.55;72.66
72892;BME280;61032;50.782;6.818;2022-11-23T01:17:32;98786.41;;;9.56;73.09
72892;BME280;61032;50.782;6.818;2022-11-23T01:18:33;98803.34;;;9.61;72.49
72892;BME280;61032;50.782;6.818;2022-11-23T01:19:33;98800.53;;;9.58;72.46
72892;BME280;61032;50.782;6.818;2022-11-23T01:20:33;98799.34;;;9.55;72.74
72892;BME280;61032;50.782;6.818;2022-11-23T01:21:35;98793.78;;;9.52;72.50
72892;BME280;61032;50.782;6.818;2022-11-23T01:22:35;98800.00;;;9.49;72.45
72892;BME280;61032;50.782;6.818;2022-11-23T01:23:36;98803.22;;;9.54;72.78
72892;BME280;61032;50.782;6.818;2022-11-23T01:24:36;98804.75;;;9.52;72.73
72892;BME280;61032;50.782;6.818;2022-11-23T01:25:36;98800.84;;;9.53;72.53
72892;BME280;61032;50.782;6.818;2022-11-23T01:26:37;98798.91;;;9.53;72.74
72892;BME280;61032;50.782;6.818;2022-11-23T01:27:37;98804.06;;;9.58;72.83
72892;BME280;61032;50.782;6.818;2022-11-23T01:28:38;98807.97;;;9.57;72.14
72892;BME280;61032;50.782;6.818;2022-11-23T01:29:39;98799.72;;;9.57;72.25
72892;BME280;61032;50.782;6.818;2022-11-23T01:30:39;98805.22;;;9.57;72.25
72892;BME280;61032;50.782;6.818;2022-11-23T01:31:40;98798.84;;;9.50;72.33
72892;BME280;61032;50.782;6.818;2022-11-23T01:32:40;98807.00;;;9.46;72.48
72892;BME280;61032;50.782;6.818;2022-11-23T01:33:41;98805.91;;;9.51;72.55
72892;BME280;61032;50.782;6.818;2022-11-23T01:34:41;98802.38;;;9.50;72.83
72892;BME280;61032;50.782;6.818;2022-11-23T01:35:42;98798.91;;;9.53;72.39
72892;BME280;61032;50.782;6.818;2022-11-23T01:36:42;98807.97;;;9.57;72.22
72892;BME280;61032;50.782;6.818;2022-11-23T01:37:43;98803.34;;;9.61;72.00
72892;BME280;61032;50.782;6.818;2022-11-23T01:38:44;98802.19;;;9.62;71.90
72892;BME280;61032;50.782;6.818;2022-11-23T01:39:44;98801.81;;;9.64;71.93
72892;BME280;61032;50.782;6.818;2022-11-23T01:40:45;98805.28;;;9.61;71.88
72892;BME280;61032;50.782;6.818;2022-11-23T01:41:45;98807.25;;;9.60;72.05
72892;BME280;61032;50.782;6.818;2022-11-23T01:42:50;98804.94;;;9.62;72.16
72892;BME280;61032;50.782;6.818;2022-11-23T01:43:51;98801.75;;;9.60;71.75
72892;BME280;61032;50.782;6.818;2022-11-23T01:46:31;98809.56;;;9.58;71.95
72892;BME280;61032;50.782;6.818;2022-11-23T01:47:31;98806.44;;;9.60;72.06
72892;BME280;61032;50.782;6.818;2022-11-23T01:48:38;98802.91;;;9.59;71.77
72892;BME280;61032;50.782;6.818;2022-11-23T01:49:45;98811.13;;;9.59;71.82
72892;BME280;61032;50.782;6.818;2022-11-23T01:50:49;98810.66;;;9.54;72.04
72892;BME280;61032;50.782;6.818;2022-11-23T01:51:54;98809.13;;;9.56;72.11
72892;BME280;61032;50.782;6.818;2022-11-23T01:52:56;98808.34;;;9.56;72.25
72892;BME280;61032;50.782;6.818;2022-11-23T01:54:00;98811.88;;;9.56;72.13
72892;BME280;61032;50.782;6.818;2022-11-23T01:55:02;98816.63;;;9.59;72.19
72892;BME280;61032;50.782;6.818;2022-11-23T01:56:05;98815.03;;;9.58;72.01
72892;BME280;61032;50.782;6.818;2022-11-23T01:57:10;98818.53;;;9.55;72.07
72892;BME280;61032;50.782;6.818;2022-11-23T01:58:13;98817.66;;;9.51;72.24
72892;BME280;61032;50.782;6.818;2022-11-23T01:59:16;98808.72;;;9.54;72.00
72892;BME280;61032;50.782;6.818;2022-11-23T02:00:18;98815.47;;;9.60;71.97
72892;BME280;61032;50.782;6.818;2022-11-23T02:01:18;98817.78;;;9.58;71.77
72892;BME280;61032;50.782;6.818;2022-11-23T02:02:19;98817.78;;;9.58;72.09
72892;BME280;61032;50.782;6.818;2022-11-23T02:03:19;98815.81;;;9.59;71.86
72892;BME280;61032;50.782;6.818;2022-11-23T02:04:28;98819.69;;;9.54;72.22
72892;BME280;61032;50.782;6.818;2022-11-23T02:05:34;98818.09;;;9.53;72.16
72892;BME280;61032;50.782;6.818;2022-11-23T02:06:36;98807.94;;;9.54;72.37
72892;BME280;61032;50.782;6.818;2022-11-23T02:07:38;98818.16;;;9.57;71.94
72892;BME280;61032;50.782;6.818;2022-11-23T02:08:40;98813.44;;;9.57;72.24
72892;BME280;61032;50.782;6.818;2022-11-23T02:09:40;98819.78;;;9.61;72.09
72892;BME280;61032;50.782;6.818;2022-11-23T02:10:41;98823.69;;;9.60;71.93
72892;BME280;61032;50.782;6.818;2022-11-23T02:11:42;98825.28;;;9.61;72.15
72892;BME280;61032;50.782;6.818;2022-11-23T02:12:42;98826.88;;;9.62;72.09
72892;BME280;61032;50.782;6.818;2022-11-23T02:13:44;98825.00;;;9.67;71.42
72892;BME280;61032;50.782;6.818;2022-11-23T02:14:45;98824.19;;;9.66;71.49
72892;BME280;61032;50.782;6.818;2022-11-23T02:15:46;98825.47;;;9.72;71.27
72892;BME280;61032;50.782;6.818;2022-11-23T02:16:46;98821.59;;;9.73;71.19
72892;BME280;61032;50.782;6.818;2022-11-23T02:17:46;98821.88;;;9.68;71.29
72892;BME280;61032;50.782;6.818;2022-11-23T02:18:48;98825.78;;;9.67;71.26
72892;BME280;61032;50.782;6.818;2022-11-23T02:20:03;98822.97;;;9.63;71.32
72892;BME280;61032;50.782;6.818;2022-11-23T02:21:06;98830.03;;;9.64;72.05
72892;BME280;61032;50.782;6.818;2022-11-23T02:22:13;98827.31;;;9.64;71.59
72892;BME280;61032;50.782;6.818;2022-11-23T02:23:29;98824.56;;;9.64;71.62
72892;BME280;61032;50.782;6.818;2022-11-23T02:24:35;98832.72;;;9.61;71.37
72892;BME280;61032;50.782;6.818;2022-11-23T02:26:42;98832.00;;;9.64;71.45
72892;BME280;61032;50.782;6.818;2022-11-23T02:27:43;98827.00;;;9.70;71.50
72892;BME280;61032;50.782;6.818;2022-11-23T02:28:48;98831.75;;;9.73;71.36
72892;BME280;61032;50.782;6.818;2022-11-23T02:29:50;98827.00;;;9.70;71.10
72892;BME280;61032;50.782;6.818;2022-11-23T02:30:53;98838.34;;;9.68;70.91
72892;BME280;61032;50.782;6.818;2022-11-23T02:31:54;98839.56;;;9.71;71.57
72892;BME280;61032;50.782;6.818;2022-11-23T02:32:54;98832.50;;;9.70;71.08
72892;BME280;61032;50.782;6.818;2022-11-23T02:33:55;98829.69;;;9.66;71.36
72892;BME280;61032;50.782;6.818;2022-11-23T02:34:55;98832.34;;;9.62;71.44
72892;BME280;61032;50.782;6.818;2022-11-23T02:35:58;98828.16;;;9.69;71.25
72892;BME280;61032;50.782;6.818;2022-11-23T02:36:59;98821.88;;;9.68;71.10
72892;BME280;61032;50.782;6.818;2022-11-23T02:38:01;98823.69;;;9.60;71.37
72892;BME280;61032;50.782;6.818;2022-11-23T02:39:10;98811.94;;;9.60;71.78
72892;BME280;61032;50.782;6.818;2022-11-23T02:40:34;98817.84;;;9.62;71.04
72892;BME280;61032;50.782;6.818;2022-11-23T02:42:40;98822.09;;;9.59;71.37
72892;BME280;61032;50.782;6.818;2022-11-23T02:43:41;98818.22;;;9.60;71.33
72892;BME280;61032;50.782;6.818;2022-11-23T02:46:01;98815.72;;;9.52;71.60
72892;BME280;61032;50.782;6.818;2022-11-23T02:47:04;98816.63;;;9.59;72.00
72892;BME280;61032;50.782;6.818;2022-11-23T02:48:04;98823.28;;;9.58;71.66
72892;BME280;61032;50.782;6.818;2022-11-23T02:49:05;98820.22;;;9.63;71.90
72892;BME280;61032;50.782;6.818;2022-11-23T02:50:05;98822.53;;;9.61;71.63
72892;BME280;61032;50.782;6.818;2022-11-23T02:51:06;98823.63;;;9.57;71.84
72892;BME280;61032;50.782;6.818;2022-11-23T02:52:06;98820.06;;;9.53;72.17
72892;BME280;61032;50.782;6.818;2022-11-23T02:53:07;98816.59;;;9.56;72.08
72892;BME280;61032;50.782;6.818;2022-11-23T02:54:07;98822.84;;;9.56;72.04
72892;BME280;61032;50.782;6.818;2022-11-23T02:55:08;98827.97;;;9.58;71.91
72892;BME280;61032;50.782;6.818;2022-11-23T02:56:08;98828.72;;;9.55;71.74
72892;BME280;61032;50.782;6.818;2022-11-23T02:57:09;98829.44;;;9.52;72.26
72892;BME280;61032;50.782;6.818;2022-11-23T02:58:09;98824.75;;;9.52;72.32
72892;BME280;61032;50.782;6.818;2022-11-23T02:59:10;98825.53;;;9.53;72.38
72892;BME280;61032;50.782;6.818;2022-11-23T03:00:11;98827.50;;;9.52;71.86
72892;BME280;61032;50.782;6.818;2022-11-23T03:01:11;98821.22;;;9.52;72.31
72892;BME280;61032;50.782;6.818;2022-11-23T03:02:12;98829.81;;;9.50;72.25
72892;BME280;61032;50.782;6.818;2022-11-23T03:03:12;98830.53;;;9.47;72.40
72892;BME280;61032;50.782;6.818;2022-11-23T03:04:13;98826.91;;;9.43;71.77
72892;BME280;61032;50.782;6.818;2022-11-23T03:05:13;98823.31;;;9.39;72.42
72892;BME280;61032;50.782;6.818;2022-11-23T03:06:13;98828.44;;;9.41;72.07
72892;BME280;61032;50.782;6.818;2022-11-23T03:07:14;98831.09;;;9.37;72.69
72892;BME280;61032;50.782;6.818;2022-11-23T03:08:14;98832.66;;;9.35;72.46
72892;BME280;61032;50.782;6.818;2022-11-23T03:09:14;98824.78;;;9.33;72.41
72892;BME280;61032;50.782;6.818;2022-11-23T03:10:15;98827.16;;;9.35;72.49
72892;BME280;61032;50.782;6.818;2022-11-23T03:11:15;98825.63;;;9.37;72.31
72892;BME280;61032;50.782;6.818;2022-11-23T03:12:16;98827.56;;;9.37;72.67
72892;BME280;61032;50.782;6.818;2022-11-23T03:13:16;98831.91;;;9.38;72.60
72892;BME280;61032;50.782;6.818;2022-11-23T03:14:17;98830.31;;;9.37;72.68
72892;BME280;61032;50.782;6.818;2022-11-23T03:15:17;98825.16;;;9.32;72.54
72892;BME280;61032;50.782;6.818;2022-11-23T03:16:17;98825.50;;;9.30;72.48
72892;BME280;61032;50.782;6.818;2022-11-23T03:17:18;98825.78;;;9.25;72.97
72892;BME280;61032;50.782;6.818;2022-11-23T03:18:18;98828.38;;;9.18;73.29
72892;BME280;61032;50.782;6.818;2022-11-23T03:19:18;98822.19;;;9.21;73.35
72892;BME280;61032;50.782;6.818;2022-11-23T03:20:19;98829.97;;;9.19;73.26
72892;BME280;61032;50.782;6.818;2022-11-23T03:21:19;98828.34;;;9.14;73.04
72892;BME280;61032;50.782;6.818;2022-11-23T03:22:19;98823.50;;;9.08;73.60
72892;BME280;61032;50.782;6.818;2022-11-23T03:23:20;98830.44;;;9.02;73.64
72892;BME280;61032;50.782;6.818;2022-11-23T03:24:20;98829.34;;;9.06;73.62
72892;BME280;61032;50.782;6.818;2022-11-23T03:25:20;98826.69;;;9.10;73.66
72892;BME280;61032;50.782;6.818;2022-11-23T03:26:21;98826.69;;;9.10;73.30
72892;BME280;61032;50.782;6.818;2022-11-23T03:27:21;98831.81;;;9.11;73.20
72892;BME280;61032;50.782;6.818;2022-11-23T03:28:21;98824.66;;;9.07;73.58
72892;BME280;61032;50.782;6.818;2022-11-23T03:29:22;98830.50;;;9.05;73.52
72892;BME280;61032;50.782;6.818;2022-11-23T03:30:25;98827.03;;;9.08;73.32
72892;BME280;61032;50.782;6.818;2022-11-23T03:31:25;98825.44;;;9.07;73.54
72892;BME280;61032;50.782;6.818;2022-11-23T03:32:26;98826.25;;;9.08;73.68
72892;BME280;61032;50.782;6.818;2022-11-23T03:33:26;98830.50;;;9.05;73.48
72892;BME280;61032;50.782;6.818;2022-11-23T03:34:26;98823.72;;;8.99;73.53
72892;BME280;61032;50.782;6.818;2022-11-23T03:35:27;98828.84;;;9.01;73.36
72892;BME280;61032;50.782;6.818;2022-11-23T03:36:27;98835.38;;;8.96;73.75
72892;BME280;61032;50.782;6.818;2022-11-23T03:37:27;98829.19;;;8.99;73.72
72892;BME280;61032;50.782;6.818;2022-11-23T03:38:28;98829.47;;;8.94;73.30
72892;BME280;61032;50.782;6.818;2022-11-23T03:39:28;98831.44;;;8.93;73.57
72892;BME280;61032;50.782;6.818;2022-11-23T03:40:28;98827.97;;;8.96;73.81
72892;BME280;61032;50.782;6.818;2022-11-23T03:41:28;98826.38;;;8.95;73.59
72892;BME280;61032;50.782;6.818;2022-11-23T03:42:29;98838.50;;;8.94;73.58
72892;BME280;61032;50.782;6.818;2022-11-23T03:43:29;98834.19;;;8.93;73.61
72892;BME280;61032;50.782;6.818;2022-11-23T03:44:29;98834.19;;;8.93;73.50
72892;BME280;61032;50.782;6.818;2022-11-23T03:45:30;98838.00;;;8.89;73.46
72892;BME280;61032;50.782;6.818;2022-11-23T03:46:30;98841.19;;;8.91;73.77
72892;BME280;61032;50.782;6.818;2022-11-23T03:47:30;98827.13;;;8.92;73.59
72892;BME280;61032;50.782;6.818;2022-11-23T03:48:30;98832.97;;;8.91;73.41
72892;BME280;61032;50.782;6.818;2022-11-23T03:49:31;98832.97;;;8.91;73.64
72892;BME280;61032;50.782;6.818;2022-11-23T03:50:31;98831.72;;;8.88;73.63
72892;BME280;61032;50.782;6.818;2022-11-23T03:51:32;98827.41;;;8.87;73.67
72892;BME280;61032;50.782;6.818;2022-11-23T03:52:32;98824.66;;;8.87;73.75
72892;BME280;61032;50.782;6.818;2022-11-23T03:53:32;98829.63;;;8.82;73.71
72892;BME280;61032;50.782;6.818;2022-11-23T03:54:33;98828.03;;;8.81;73.53
72892;BME280;61032;50.782;6.818;2022-11-23T03:55:33;98827.69;;;8.82;73.77
72892;BME280;61032;50.782;6.818;2022-11-23T03:56:33;98828.03;;;8.81;73.96
72892;BME280;61032;50.782;6.818;2022-11-23T03:57:34;98818.66;;;8.82;73.90
72892;BME280;61032;50.782;6.818;2022-11-23T03:58:34;98830.84;;;8.84;73.99
72892;BME280;61032;50.782;6.818;2022-11-23T03:59:34;98827.84;;;8.89;73.73
72892;BME280;61032;50.782;6.818;2022-11-23T04:00:35;98833.31;;;8.89;73.67
72892;BME280;61032;50.782;6.818;2022-11-23T04:01:35;98830.22;;;8.91;73.20
72892;BME280;61032;50.782;6.818;2022-11-23T04:02:35;98838.44;;;8.91;73.70
72892;BME280;61032;50.782;6.818;2022-11-23T04:03:36;98837.28;;;8.92;73.54
72892;BME280;61032;50.782;6.818;2022-11-23T04:04:36;98837.69;;;8.94;73.30
72892;BME280;61032;50.782;6.818;2022-11-23T04:05:36;98834.19;;;8.93;73.47
72892;BME280;61032;50.782;6.818;2022-11-23T04:06:37;98835.38;;;8.96;73.71
72892;BME280;61032;50.782;6.818;2022-11-23T04:07:37;98838.22;;;9.00;73.24
72892;BME280;61032;50.782;6.818;2022-11-23T04:08:37;98835.09;;;9.01;73.28
72892;BME280;61032;50.782;6.818;2022-11-23T04:09:37;98831.94;;;8.99;72.58
72892;BME280;61032;50.782;6.818;2022-11-23T04:10:38;98832.44;;;9.05;73.16
72892;BME280;61032;50.782;6.818;2022-11-23T04:11:38;98825.38;;;9.04;72.98
72892;BME280;61032;50.782;6.818;2022-11-23T04:12:38;98834.81;;;9.06;72.94
72892;BME280;61032;50.782;6.818;2022-11-23T04:13:39;98828.13;;;9.04;73.05
72892;BME280;61032;50.782;6.818;2022-11-23T04:14:39;98829.72;;;9.05;73.19
72892;BME280;61032;50.782;6.818;2022-11-23T04:15:39;98834.03;;;9.06;72.75
72892;BME280;61032;50.782;6.818;2022-11-23T04:16:40;98829.72;;;9.05;73.16
72892;BME280;61032;50.782;6.818;2022-11-23T04:17:40;98833.25;;;9.05;73.42
72892;BME280;61032;50.782;6.818;2022-11-23T04:18:41;98824.22;;;9.05;73.45
72892;BME280;61032;50.782;6.818;2022-11-23T04:19:41;98830.56;;;9.09;73.43
72892;BME280;61032;50.782;6.818;2022-11-23T04:20:41;98829.00;;;9.08;72.85
72892;BME280;61032;50.782;6.818;2022-11-23T04:21:42;98832.09;;;9.06;73.11
72892;BME280;61032;50.782;6.818;2022-11-23T04:22:42;98832.59;;;9.12;72.88
72892;BME280;61032;50.782;6.818;2022-11-23T04:23:42;98829.09;;;9.15;73.07
72892;BME280;61032;50.782;6.818;2022-11-23T04:24:42;98834.91;;;9.10;73.05
72892;BME280;61032;50.782;6.818;2022-11-23T04:25:44;98835.09;;;9.01;73.54
72892;BME280;61032;50.782;6.818;2022-11-23T04:26:44;98834.41;;;9.04;73.09
72892;BME280;61032;50.782;6.818;2022-11-23T04:27:44;98828.63;;;9.09;73.18
72892;BME280;61032;50.782;6.818;2022-11-23T04:28:45;98830.56;;;9.09;72.78
72892;BME280;61032;50.782;6.818;2022-11-23T04:29:45;98832.25;;;9.13;72.94
72892;BME280;61032;50.782;6.818;2022-11-23T04:30:46;98829.41;;;9.10;72.75
72892;BME280;61032;50.782;6.818;2022-11-23T04:31:46;98833.69;;;9.07;73.15
72892;BME280;61032;50.782;6.818;2022-11-23T04:32:46;98836.78;;;9.06;73.37
72892;BME280;61032;50.782;6.818;2022-11-23T04:33:46;98828.56;;;9.06;73.00
72892;BME280;61032;50.782;6.818;2022-11-23T04:34:47;98829.72;;;9.05;73.03
72892;BME280;61032;50.782;6.818;2022-11-23T04:35:48;98833.97;;;9.02;72.92
72892;BME280;61032;50.782;6.818;2022-11-23T04:36:48;98839.44;;;9.02;72.98
72892;BME280;61032;50.782;6.818;2022-11-23T04:37:48;98826.97;;;9.05;73.11
72892;BME280;61032;50.782;6.818;2022-11-23T04:38:49;98834.59;;;9.15;72.94
72892;BME280;61032;50.782;6.818;2022-11-23T04:39:49;98830.66;;;9.12;72.68
72892;BME280;61032;50.782;6.818;2022-11-23T04:40:49;98834.53;;;9.11;72.62
72892;BME280;61032;50.782;6.818;2022-11-23T04:41:50;98840.81;;;9.12;72.89
72892;BME280;61032;50.782;6.818;2022-11-23T04:42:50;98829.41;;;9.10;72.65
72892;BME280;61032;50.782;6.818;2022-11-23T04:43:50;98838.50;;;9.14;72.86
72892;BME280;61032;50.782;6.818;2022-11-23T04:44:53;98835.34;;;9.12;72.90
72892;BME280;61032;50.782;6.818;2022-11-23T04:45:54;98846.75;;;9.14;72.51
72892;BME280;61032;50.782;6.818;2022-11-23T04:46:54;98839.31;;;9.14;72.91
72892;BME280;61032;50.782;6.818;2022-11-23T04:47:54;98835.47;;;9.19;72.89
72892;BME280;61032;50.782;6.818;2022-11-23T04:48:55;98841.75;;;9.19;72.40
72892;BME280;61032;50.782;6.818;2022-11-23T04:49:55;98835.91;;;9.21;72.62
72892;BME280;61032;50.782;6.818;2022-11-23T04:50:55;98839.44;;;9.21;72.72
72892;BME280;61032;50.782;6.818;2022-11-23T04:51:56;98836.97;;;9.16;72.29
72892;BME280;61032;50.782;6.818;2022-11-23T04:52:56;98844.84;;;9.18;72.68
72892;BME280;61032;50.782;6.818;2022-11-23T04:53:56;98845.63;;;9.18;72.67
72892;BME280;61032;50.782;6.818;2022-11-23T04:54:56;98846.44;;;9.19;72.80
72892;BME280;61032;50.782;6.818;2022-11-23T04:55:57;98848.00;;;9.20;72.41
72892;BME280;61032;50.782;6.818;2022-11-23T04:56:57;98843.25;;;9.17;72.35
72892;BME280;61032;50.782;6.818;2022-11-23T04:57:57;98850.31;;;9.18;72.36
72892;BME280;61032;50.782;6.818;2022-11-23T04:58:58;98855.44;;;9.19;72.65
72892;BME280;61032;50.782;6.818;2022-11-23T04:59:58;98849.25;;;9.22;72.35
72892;BME280;61032;50.782;6.818;2022-11-23T05:00:58;98852.06;;;9.26;72.26
72892;BME280;61032;50.782;6.818;2022-11-23T05:01:59;98850.84;;;9.23;72.19
72892;BME280;61032;50.782;6.818;2022-11-23T05:03:00;98850.91;;;9.27;72.29
72892;BME280;61032;50.782;6.818;2022-11-23T05:04:00;98847.38;;;9.26;72.06
72892;BME280;61032;50.782;6.818;2022-11-23T05:05:01;98851.25;;;9.25;72.27
72892;BME280;61032;50.782;6.818;2022-11-23T05:06:02;98857.53;;;9.26;72.43
72892;BME280;61032;50.782;6.818;2022-11-23T05:07:03;98852.34;;;9.21;72.13
72892;BME280;61032;50.782;6.818;2022-11-23T05:08:03;98852.28;;;9.17;72.38
72892;BME280;61032;50.782;6.818;2022-11-23T05:09:04;98853.50;;;9.20;72.71
72892;BME280;61032;50.782;6.818;2022-11-23T05:10:05;98849.97;;;9.19;72.70
72892;BME280;61032;50.782;6.818;2022-11-23T05:11:05;98851.97;;;9.22;72.15
72892;BME280;61032;50.782;6.818;2022-11-23T05:12:06;98848.81;;;9.20;72.10
72892;BME280;61032;50.782;6.818;2022-11-23T05:13:06;98853.13;;;9.21;72.18
72892;BME280;61032;50.782;6.818;2022-11-23T05:14:06;98849.59;;;9.21;71.93
72892;BME280;61032;50.782;6.818;2022-11-23T05:15:07;98853.66;;;9.27;72.33
72892;BME280;61032;50.782;6.818;2022-11-23T05:16:08;98843.31;;;9.20;72.44
72892;BME280;61032;50.782;6.818;2022-11-23T05:17:08;98851.19;;;9.22;72.19
72892;BME280;61032;50.782;6.818;2022-11-23T05:18:09;98850.75;;;9.20;72.57
72892;BME280;61032;50.782;6.818;2022-11-23T05:19:09;98851.91;;;9.19;72.22
72892;BME280;61032;50.782;6.818;2022-11-23T05:20:10;98854.22;;;9.17;72.50
72892;BME280;61032;50.782;6.818;2022-11-23T05:21:11;98853.84;;;9.18;72.51
72892;BME280;61032;50.782;6.818;2022-11-23T05:22:11;98849.09;;;9.15;72.68
72892;BME280;61032;50.782;6.818;2022-11-23T05:23:11;98859.69;;;9.17;72.84
72892;BME280;61032;50.782;6.818;2022-11-23T05:24:12;98847.56;;;9.18;72.92
72892;BME280;61032;50.782;6.818;2022-11-23T05:25:12;98858.06;;;9.12;72.77
72892;BME280;61032;50.782;6.818;2022-11-23T05:26:13;98859.22;;;9.11;72.51
72892;BME280;61032;50.782;6.818;2022-11-23T05:27:13;98856.53;;;9.15;72.98
72892;BME280;61032;50.782;6.818;2022-11-23T05:28:15;98854.97;;;9.14;72.87
72892;BME280;61032;50.782;6.818;2022-11-23T05:29:16;98856.47;;;9.11;72.88
72892;BME280;61032;50.782;6.818;2022-11-23T05:30:16;98861.16;;;9.11;72.70
72892;BME280;61032;50.782;6.818;2022-11-23T05:31:17;98851.03;;;9.15;72.84
72892;BME280;61032;50.782;6.818;2022-11-23T05:32:17;98855.38;;;9.16;72.48
72892;BME280;61032;50.782;6.818;2022-11-23T05:33:17;98853.78;;;9.15;72.82